RKTU/CHN METAR and TAF weather

Enter ICAO airport designator
Station Type Date Time Source
RKTU METAR 2022/06/27 17:00 UTC NOAA

RKTU 271700Z 23010KT 9999 BKN040 BKN200 28/21 Q1005


Station Type Date Time Source
RKTU Decoded METAR 2022/06/27 17:00 UTC NOAA

Chongju Ab, Korea, South (RKTU) 36-42N 127-30E 66M
Jun 27, 2022 - 01:00 PM EDT / 2022.06.27 1700 UTC
Wind: from the SW (230 degrees) at 12 MPH (10 KT):0
Visibility: greater than 7 mile(s):0
Sky conditions: mostly cloudy
Temperature: 82 F (28 C)
Dew Point: 69 F (21 C)
Relative Humidity: 65%
Pressure (altimeter): 29.68 in. Hg (1005 hPa)
ob: RKTU 271700Z 23010KT 9999 BKN040 BKN200 28/21 Q1005
cycle: 17

Station Type Date Time Source
RKTU TAF 2022/06/27 18:07 UTC NOAA

TAF RKTU 271700Z 2718/2824 21006KT 9999 BKN030 BKN200 TN25/2721Z TX32/2806Z
BECMG 2818/2819 4800 -RA BR BKN015 OVC030

Example: see airport list